createdAt,value
2023-03-06T00:00:52.327Z,923.96
2023-03-06T00:01:52.589Z,923.95
2023-03-06T00:02:52.402Z,923.91
2023-03-06T00:03:52.756Z,923.89
2023-03-06T00:04:52.623Z,923.88
2023-03-06T00:05:52.541Z,923.87
2023-03-06T00:06:52.298Z,923.89
2023-03-06T00:07:52.222Z,923.94
2023-03-06T00:08:52.404Z,924.03
2023-03-06T00:09:52.304Z,924.10
2023-03-06T00:10:52.242Z,924.14
2023-03-06T00:11:52.419Z,924.17
2023-03-06T00:12:52.351Z,924.17
2023-03-06T00:13:52.223Z,924.17
2023-03-06T00:14:52.524Z,924.17
2023-03-06T00:15:52.529Z,924.20
2023-03-06T00:16:52.347Z,924.24
2023-03-06T00:17:52.293Z,924.31
2023-03-06T00:18:52.098Z,924.39
2023-03-06T00:19:53.109Z,924.47
2023-03-06T00:20:52.416Z,924.53
2023-03-06T00:21:52.275Z,924.56
2023-03-06T00:22:52.398Z,924.58
2023-03-06T00:23:52.086Z,924.58
2023-03-06T00:24:52.333Z,924.57
2023-03-06T00:25:52.207Z,924.56
2023-03-06T00:26:52.108Z,924.56
2023-03-06T00:27:53.081Z,924.57
2023-03-06T00:28:52.357Z,924.58
2023-03-06T00:29:52.270Z,924.61
2023-03-06T00:30:52.037Z,924.63
2023-03-06T00:31:52.285Z,924.64
2023-03-06T00:32:52.321Z,924.62
2023-03-06T00:33:52.155Z,924.62
2023-03-06T00:34:52.162Z,924.61
2023-03-06T00:35:52.276Z,924.59
2023-03-06T00:36:52.276Z,924.58
2023-03-06T00:37:52.293Z,924.58
2023-03-06T00:38:52.290Z,924.58
2023-03-06T00:39:52.084Z,924.59
2023-03-06T00:40:52.618Z,924.59
2023-03-06T00:41:52.142Z,924.60
2023-03-06T00:42:52.114Z,924.56
2023-03-06T00:43:51.912Z,924.54
2023-03-06T00:44:51.942Z,924.55
2023-03-06T00:45:52.006Z,924.53
2023-03-06T00:46:53.671Z,924.62
2023-03-06T00:47:52.084Z,924.66
2023-03-06T00:48:51.840Z,924.72
2023-03-06T00:49:52.087Z,924.75
2023-03-06T00:50:52.267Z,924.77
2023-03-06T00:51:52.102Z,924.79
2023-03-06T00:52:52.078Z,924.85
2023-03-06T00:53:51.871Z,924.83
2023-03-06T00:54:52.025Z,924.83
2023-03-06T00:55:51.789Z,924.86
2023-03-06T00:56:52.006Z,924.87
2023-03-06T00:57:51.908Z,924.89
2023-03-06T00:58:51.917Z,924.83
2023-03-06T00:59:52.030Z,924.80
2023-03-06T01:00:52.280Z,924.76
2023-03-06T01:01:52.116Z,924.70
2023-03-06T01:02:51.832Z,924.65
2023-03-06T01:03:51.921Z,924.61
2023-03-06T01:04:51.623Z,924.57
2023-03-06T01:05:51.655Z,924.54
2023-03-06T01:06:51.782Z,924.51
2023-03-06T01:07:51.680Z,924.47
2023-03-06T01:08:51.770Z,924.44
2023-03-06T01:09:51.856Z,924.42
2023-03-06T01:10:51.900Z,924.42
2023-03-06T01:11:51.971Z,924.38
2023-03-06T01:12:51.573Z,924.34
2023-03-06T01:13:51.573Z,924.32
2023-03-06T01:14:51.517Z,924.33
2023-03-06T01:15:51.482Z,924.34
2023-03-06T01:16:51.598Z,924.33
2023-03-06T01:17:51.503Z,924.32
2023-03-06T01:18:51.445Z,924.27
2023-03-06T01:19:51.417Z,924.23
2023-03-06T01:20:51.420Z,924.23
2023-03-06T01:21:51.433Z,924.24
2023-03-06T01:22:51.474Z,924.27
2023-03-06T01:23:51.381Z,924.33
2023-03-06T01:24:51.443Z,924.38
2023-03-06T01:25:51.351Z,924.43
2023-03-06T01:26:51.399Z,924.52
2023-03-06T01:27:51.414Z,924.56
2023-03-06T01:28:51.371Z,924.59
2023-03-06T01:29:51.315Z,924.59
2023-03-06T01:30:51.316Z,924.61
2023-03-06T01:31:51.377Z,924.63
2023-03-06T01:32:51.297Z,924.64
2023-03-06T01:33:51.245Z,924.66
2023-03-06T01:34:51.260Z,924.70
2023-03-06T01:35:51.360Z,924.72
2023-03-06T01:36:51.217Z,924.76
2023-03-06T01:37:51.220Z,924.76
2023-03-06T01:38:51.234Z,924.74
2023-03-06T01:39:51.179Z,924.72
2023-03-06T01:40:51.250Z,924.69
2023-03-06T01:41:51.193Z,924.65
2023-03-06T01:42:51.160Z,924.63
2023-03-06T01:43:51.167Z,924.61
2023-03-06T01:44:51.214Z,924.59
2023-03-06T01:45:51.160Z,924.59
2023-03-06T01:46:51.182Z,924.58
2023-03-06T01:47:51.136Z,924.59
2023-03-06T01:48:51.099Z,924.58
2023-03-06T01:49:51.112Z,924.58
2023-03-06T01:50:51.128Z,924.53
2023-03-06T01:51:51.123Z,924.50
2023-03-06T01:52:51.070Z,924.49
2023-03-06T01:53:51.846Z,924.49
2023-03-06T01:54:51.701Z,924.48
2023-03-06T01:55:51.347Z,924.47
2023-03-06T01:56:51.080Z,924.47
2023-03-06T01:57:51.003Z,924.47
2023-03-06T01:58:51.829Z,924.50
2023-03-06T01:59:51.077Z,924.53
2023-03-06T02:00:51.086Z,924.53
2023-03-06T02:01:51.105Z,924.54
2023-03-06T02:02:51.037Z,924.57
2023-03-06T02:03:50.938Z,924.58
2023-03-06T02:04:50.947Z,924.55
2023-03-06T02:05:50.952Z,924.52
2023-03-06T02:06:50.914Z,924.52
2023-03-06T02:07:50.917Z,924.48
2023-03-06T02:08:50.873Z,924.44
2023-03-06T02:09:50.888Z,924.41
2023-03-06T02:10:50.945Z,924.36
2023-03-06T02:11:51.008Z,924.33
2023-03-06T02:12:50.950Z,924.32
2023-03-06T02:13:50.806Z,924.35
2023-03-06T02:14:50.864Z,924.42
2023-03-06T02:15:50.840Z,924.51
2023-03-06T02:16:50.858Z,924.57
2023-03-06T02:17:50.834Z,924.62
2023-03-06T02:18:50.890Z,924.68
2023-03-06T02:19:50.791Z,924.72
2023-03-06T02:20:50.857Z,924.77
2023-03-06T02:21:50.769Z,924.80
2023-03-06T02:22:50.819Z,924.82
2023-03-06T02:23:50.723Z,924.83
2023-03-06T02:24:50.783Z,924.85
2023-03-06T02:25:50.692Z,924.85
2023-03-06T02:26:50.798Z,924.84
2023-03-06T02:27:50.702Z,924.83
2023-03-06T02:28:50.709Z,924.84
2023-03-06T02:29:50.759Z,924.87
2023-03-06T02:30:50.795Z,924.88
2023-03-06T02:31:50.628Z,924.91
2023-03-06T02:32:50.680Z,924.91
2023-03-06T02:33:50.688Z,924.90
2023-03-06T02:34:50.660Z,924.92
2023-03-06T02:35:51.501Z,924.93
2023-03-06T02:36:50.731Z,924.96
2023-03-06T02:37:50.618Z,925.04
2023-03-06T02:38:50.628Z,925.17
2023-03-06T02:39:50.626Z,925.33
2023-03-06T02:40:50.630Z,925.49
2023-03-06T02:41:50.657Z,925.61
2023-03-06T02:42:50.581Z,925.68
2023-03-06T02:43:50.551Z,925.74
2023-03-06T02:44:50.556Z,925.75
2023-03-06T02:45:50.657Z,925.75
2023-03-06T02:46:50.574Z,925.81
2023-03-06T02:47:50.572Z,925.77
2023-03-06T02:48:50.476Z,925.75
2023-03-06T02:49:50.482Z,925.64
2023-03-06T02:50:50.494Z,925.63
2023-03-06T02:51:50.435Z,925.53
2023-03-06T02:52:50.510Z,925.48
2023-03-06T02:53:50.508Z,925.47
2023-03-06T02:54:50.409Z,925.41
2023-03-06T02:55:50.416Z,925.36
2023-03-06T02:56:50.367Z,925.31
2023-03-06T02:57:49.409Z,925.33
2023-03-06T02:58:50.949Z,925.38
2023-03-06T02:59:50.395Z,925.35
2023-03-06T03:00:50.364Z,925.37
2023-03-06T03:01:50.381Z,925.40
2023-03-06T03:02:50.466Z,925.41
2023-03-06T03:03:50.313Z,925.44
2023-03-06T03:04:50.437Z,925.46
2023-03-06T03:05:50.272Z,925.55
2023-03-06T03:06:50.226Z,925.61
2023-03-06T03:07:50.239Z,925.62
2023-03-06T03:08:50.226Z,925.63
2023-03-06T03:09:50.234Z,925.65
2023-03-06T03:10:50.211Z,925.60
2023-03-06T03:11:50.235Z,925.47
2023-03-06T03:12:50.219Z,925.40
2023-03-06T03:13:50.164Z,925.35
2023-03-06T03:14:50.160Z,925.33
2023-03-06T03:15:50.240Z,925.33
2023-03-06T03:16:50.151Z,925.34
2023-03-06T03:17:50.146Z,925.32
2023-03-06T03:18:50.098Z,925.36
2023-03-06T03:19:50.104Z,925.33
2023-03-06T03:20:50.163Z,925.32
2023-03-06T03:21:50.113Z,925.36
2023-03-06T03:22:50.075Z,925.34
2023-03-06T03:23:50.043Z,925.27
2023-03-06T03:24:50.080Z,925.23
2023-03-06T03:25:50.035Z,925.19
2023-03-06T03:26:50.046Z,925.13
2023-03-06T03:27:50.148Z,925.10
2023-03-06T03:28:50.013Z,925.06
2023-03-06T03:29:50.018Z,925.05
2023-03-06T03:30:49.996Z,925.02
2023-03-06T03:31:49.975Z,925.01
2023-03-06T03:32:49.991Z,925.01
2023-03-06T03:33:49.958Z,924.99
2023-03-06T03:34:49.923Z,925.00
2023-03-06T03:35:49.979Z,925.00
2023-03-06T03:36:49.922Z,924.97
2023-03-06T03:37:49.935Z,924.97
2023-03-06T03:38:49.912Z,924.97
2023-03-06T03:39:49.889Z,924.97
2023-03-06T03:40:49.888Z,924.98
2023-03-06T03:41:49.854Z,924.99
2023-03-06T03:42:49.852Z,925.01
2023-03-06T03:43:49.859Z,925.01
2023-03-06T03:44:49.969Z,924.98
2023-03-06T03:45:49.866Z,924.97
2023-03-06T03:46:49.892Z,924.99
2023-03-06T03:47:49.783Z,925.01
2023-03-06T03:48:49.789Z,925.02
2023-03-06T03:49:49.792Z,925.02
2023-03-06T03:50:49.805Z,925.00
2023-03-06T03:51:49.762Z,925.00
2023-03-06T03:52:50.353Z,924.99
2023-03-06T03:53:49.722Z,924.95
2023-03-06T03:54:49.722Z,924.93
2023-03-06T03:55:50.343Z,924.93
2023-03-06T03:56:49.736Z,924.96
2023-03-06T03:57:49.700Z,924.98
2023-03-06T03:58:49.661Z,924.98
2023-03-06T03:59:49.658Z,924.95
2023-03-06T04:00:49.672Z,924.92
2023-03-06T04:01:49.718Z,924.90
2023-03-06T04:02:49.879Z,924.88
2023-03-06T04:03:49.639Z,924.86
2023-03-06T04:04:49.701Z,924.82
2023-03-06T04:05:49.670Z,924.81
2023-03-06T04:06:49.624Z,924.82
2023-03-06T04:07:49.623Z,924.84
2023-03-06T04:08:49.694Z,924.84
2023-03-06T04:09:49.597Z,924.80
2023-03-06T04:10:49.603Z,924.74
2023-03-06T04:11:49.608Z,924.71
2023-03-06T04:12:49.723Z,924.70
2023-03-06T04:13:49.620Z,924.68
2023-03-06T04:14:49.532Z,924.65
2023-03-06T04:15:49.531Z,924.63
2023-03-06T04:16:49.582Z,924.62
2023-03-06T04:17:49.547Z,924.61
2023-03-06T04:18:49.493Z,924.60
2023-03-06T04:19:49.558Z,924.60
2023-03-06T04:20:49.475Z,924.59
2023-03-06T04:21:49.474Z,924.58
2023-03-06T04:22:49.490Z,924.58
2023-03-06T04:23:49.482Z,924.55
2023-03-06T04:24:49.496Z,924.50
2023-03-06T04:25:49.436Z,924.46
2023-03-06T04:26:49.403Z,924.45
2023-03-06T04:27:49.410Z,924.47
2023-03-06T04:28:49.419Z,924.47
2023-03-06T04:29:49.428Z,924.46
2023-03-06T04:30:49.435Z,924.42
2023-03-06T04:31:49.494Z,924.39
2023-03-06T04:32:49.345Z,924.39
2023-03-06T04:33:49.346Z,924.38
2023-03-06T04:34:49.324Z,924.36
2023-03-06T04:35:49.420Z,924.32
2023-03-06T04:36:50.100Z,924.31
2023-03-06T04:37:49.376Z,924.33
2023-03-06T04:38:49.295Z,924.36
2023-03-06T04:39:49.297Z,924.37
2023-03-06T04:40:49.302Z,924.34
2023-03-06T04:41:49.307Z,924.27
2023-03-06T04:42:49.279Z,924.21
2023-03-06T04:43:49.328Z,924.18
2023-03-06T04:44:49.224Z,924.16
2023-03-06T04:45:49.495Z,924.13
2023-03-06T04:46:49.245Z,924.09
2023-03-06T04:47:49.241Z,924.04
2023-03-06T04:48:49.220Z,924.00
2023-03-06T04:49:49.228Z,923.98
2023-03-06T04:50:49.202Z,923.96
2023-03-06T04:51:49.174Z,923.94
2023-03-06T04:52:49.179Z,923.93
2023-03-06T04:53:49.192Z,923.93
2023-03-06T04:54:49.185Z,923.94
2023-03-06T04:55:49.102Z,923.96
2023-03-06T04:56:49.106Z,923.97
2023-03-06T04:57:49.109Z,923.97
2023-03-06T04:58:49.118Z,923.97
2023-03-06T04:59:49.122Z,923.97
2023-03-06T05:00:49.110Z,923.97
2023-03-06T05:01:49.062Z,923.96
2023-03-06T05:02:49.008Z,923.95
2023-03-06T05:03:49.039Z,923.96
2023-03-06T05:04:49.071Z,923.99
2023-03-06T05:05:49.482Z,924.01
2023-03-06T05:06:49.061Z,924.03
2023-03-06T05:07:48.972Z,924.05
2023-03-06T05:08:48.971Z,924.04
2023-03-06T05:09:48.959Z,924.03
2023-03-06T05:10:48.990Z,924.03
2023-03-06T05:11:49.464Z,924.03
2023-03-06T05:12:49.011Z,924.03
2023-03-06T05:13:48.860Z,924.03
2023-03-06T05:14:48.910Z,924.01
2023-03-06T05:15:48.882Z,923.98
2023-03-06T05:16:48.958Z,923.91
2023-03-06T05:17:48.948Z,923.87
2023-03-06T05:18:50.585Z,923.84
2023-03-06T05:19:48.843Z,923.84
2023-03-06T05:20:48.814Z,923.85
2023-03-06T05:21:48.877Z,923.86
2023-03-06T05:22:48.827Z,923.88
2023-03-06T05:23:48.874Z,923.89
2023-03-06T05:24:48.799Z,923.88
2023-03-06T05:25:48.782Z,923.86
2023-03-06T05:26:48.738Z,923.84
2023-03-06T05:27:48.758Z,923.81
2023-03-06T05:28:48.757Z,923.77
2023-03-06T05:29:48.763Z,923.71
2023-03-06T05:30:48.669Z,923.64
2023-03-06T05:31:48.708Z,923.56
2023-03-06T05:32:48.711Z,923.49
2023-03-06T05:33:48.689Z,923.46
2023-03-06T05:34:48.747Z,923.45
2023-03-06T05:35:48.674Z,923.46
2023-03-06T05:36:48.658Z,923.47
2023-03-06T05:37:48.655Z,923.48
2023-03-06T05:38:48.636Z,923.49
2023-03-06T05:39:48.680Z,923.49
2023-03-06T05:40:48.606Z,923.48
2023-03-06T05:41:48.592Z,923.48
2023-03-06T05:42:48.584Z,923.47
2023-03-06T05:43:48.552Z,923.47
2023-03-06T05:44:48.593Z,923.47
2023-03-06T05:45:48.690Z,923.47
2023-03-06T05:46:48.532Z,923.46
2023-03-06T05:47:48.841Z,923.45
2023-03-06T05:48:48.496Z,923.42
2023-03-06T05:49:48.492Z,923.40
2023-03-06T05:50:48.497Z,923.38
2023-03-06T05:51:48.503Z,923.38
2023-03-06T05:52:48.526Z,923.38
2023-03-06T05:53:48.484Z,923.37
2023-03-06T05:54:48.456Z,923.36
2023-03-06T05:55:48.460Z,923.32
2023-03-06T05:56:48.453Z,923.27
2023-03-06T05:57:48.465Z,923.22
2023-03-06T05:58:48.410Z,923.18
2023-03-06T05:59:48.462Z,923.15
2023-03-06T06:00:48.417Z,923.11
2023-03-06T06:01:48.374Z,923.09
2023-03-06T06:02:48.333Z,923.10
2023-03-06T06:03:48.396Z,923.13
2023-03-06T06:04:48.347Z,923.17
2023-03-06T06:05:48.356Z,923.20
2023-03-06T06:06:48.359Z,923.21
2023-03-06T06:07:48.427Z,923.20
2023-03-06T06:08:48.275Z,923.15
2023-03-06T06:09:48.278Z,923.13
2023-03-06T06:10:48.439Z,923.13
2023-03-06T06:11:48.250Z,923.14
2023-03-06T06:12:48.260Z,923.16
2023-03-06T06:13:48.262Z,923.20
2023-03-06T06:14:48.274Z,923.23
2023-03-06T06:15:48.287Z,923.25
2023-03-06T06:16:48.486Z,923.28
2023-03-06T06:17:48.278Z,923.28
2023-03-06T06:18:48.298Z,923.24
2023-03-06T06:19:48.200Z,923.18
2023-03-06T06:20:48.202Z,923.13
2023-03-06T06:21:48.210Z,923.09
2023-03-06T06:22:48.516Z,923.08
2023-03-06T06:23:48.225Z,923.07
2023-03-06T06:24:48.208Z,923.08
2023-03-06T06:25:48.143Z,923.06
2023-03-06T06:26:48.136Z,923.03
2023-03-06T06:27:48.151Z,922.99
2023-03-06T06:28:49.481Z,922.94
2023-03-06T06:29:48.148Z,922.91
2023-03-06T06:30:48.119Z,922.89
2023-03-06T06:31:48.076Z,922.87
2023-03-06T06:32:48.082Z,922.85
2023-03-06T06:33:48.073Z,922.88
2023-03-06T06:34:48.102Z,922.89
2023-03-06T06:35:48.112Z,922.88
2023-03-06T06:36:48.109Z,922.88
2023-03-06T06:37:48.213Z,922.87
2023-03-06T06:38:48.012Z,922.86
2023-03-06T06:39:48.026Z,922.83
2023-03-06T06:41:19.026Z,922.80
2023-03-06T06:42:02.202Z,922.77
2023-03-06T06:42:48.050Z,922.75
2023-03-06T06:43:47.944Z,922.74
2023-03-06T06:44:47.946Z,922.75
2023-03-06T06:45:49.563Z,922.75
2023-03-06T06:47:48.053Z,922.80
2023-03-06T06:48:47.973Z,922.84
2023-03-06T06:49:47.895Z,922.87
2023-03-06T06:50:47.881Z,922.88
2023-03-06T06:51:47.953Z,922.89
2023-03-06T06:52:47.878Z,922.85
2023-03-06T06:53:47.890Z,922.82
2023-03-06T06:54:47.858Z,922.81
2023-03-06T06:55:47.797Z,922.79
2023-03-06T06:56:47.808Z,922.77
2023-03-06T06:57:47.814Z,922.72
2023-03-06T06:58:47.782Z,922.67
2023-03-06T06:59:47.788Z,922.66
2023-03-06T07:00:47.796Z,922.65
2023-03-06T07:01:47.867Z,922.64
2023-03-06T07:02:47.745Z,922.63
2023-03-06T07:03:47.776Z,922.62
2023-03-06T07:05:02.434Z,922.61
2023-03-06T07:05:47.730Z,922.58
2023-03-06T07:06:47.679Z,922.55
2023-03-06T07:07:47.633Z,922.52
2023-03-06T07:08:47.638Z,922.50
2023-03-06T07:09:48.000Z,922.51
2023-03-06T07:10:47.607Z,922.50
2023-03-06T07:11:47.609Z,922.51
2023-03-06T07:12:47.586Z,922.54
2023-03-06T07:13:47.639Z,922.57
2023-03-06T07:14:47.578Z,922.56
2023-03-06T07:15:48.007Z,922.55
2023-03-06T07:16:47.537Z,922.55
2023-03-06T07:17:49.930Z,922.56
2023-03-06T07:18:47.541Z,922.58
2023-03-06T07:19:47.516Z,922.60
2023-03-06T07:20:47.514Z,922.62
2023-03-06T07:21:47.565Z,922.62
2023-03-06T07:22:51.275Z,922.62
2023-03-06T07:23:47.537Z,922.61
2023-03-06T07:24:47.490Z,922.60
2023-03-06T07:25:47.455Z,922.59
2023-03-06T07:26:47.452Z,922.60
2023-03-06T07:27:53.355Z,922.59
2023-03-06T07:28:52.611Z,922.58
2023-03-06T07:29:47.422Z,922.59
2023-03-06T07:30:47.395Z,922.60
2023-03-06T07:31:47.386Z,922.63
2023-03-06T07:32:47.439Z,922.64
2023-03-06T07:33:47.397Z,922.64
2023-03-06T07:34:47.413Z,922.64
2023-03-06T07:35:47.332Z,922.65
2023-03-06T07:36:47.308Z,922.64
2023-03-06T07:37:47.309Z,922.64
2023-03-06T07:38:47.323Z,922.64
2023-03-06T07:39:47.327Z,922.63
2023-03-06T07:40:47.290Z,922.61
2023-03-06T07:41:47.261Z,922.61
2023-03-06T07:42:47.242Z,922.62
2023-03-06T07:43:47.313Z,922.62
2023-03-06T07:44:47.256Z,922.62
2023-03-06T07:45:47.268Z,922.64
2023-03-06T07:46:47.307Z,922.65
2023-03-06T07:47:47.195Z,922.67
2023-03-06T07:48:47.289Z,922.69
2023-03-06T07:49:47.246Z,922.73
2023-03-06T07:50:47.257Z,922.77
2023-03-06T07:51:47.265Z,922.80
2023-03-06T07:52:47.215Z,922.84
2023-03-06T07:53:47.221Z,922.86
2023-03-06T07:54:47.215Z,922.85
2023-03-06T07:55:47.337Z,922.83
2023-03-06T07:56:47.217Z,922.84
2023-03-06T07:57:47.153Z,922.84
2023-03-06T07:58:47.244Z,922.82
2023-03-06T07:59:47.230Z,922.80
2023-03-06T08:00:47.135Z,922.80
2023-03-06T08:01:47.133Z,922.80
2023-03-06T08:02:47.164Z,922.79
2023-03-06T08:03:47.345Z,922.81
2023-03-06T08:04:47.169Z,922.82
2023-03-06T08:05:47.185Z,922.84
2023-03-06T08:06:47.074Z,922.87
2023-03-06T08:07:47.085Z,922.88
2023-03-06T08:08:47.096Z,922.89
2023-03-06T08:09:47.044Z,922.91
2023-03-06T08:10:47.090Z,922.92
2023-03-06T08:11:47.049Z,922.93
2023-03-06T08:12:47.020Z,922.94
2023-03-06T08:13:46.956Z,922.98
2023-03-06T08:14:47.012Z,922.98
2023-03-06T08:15:46.964Z,923.02
2023-03-06T08:16:47.054Z,923.03
2023-03-06T08:17:46.976Z,923.06
2023-03-06T08:18:46.947Z,923.05
2023-03-06T08:19:46.946Z,923.05
2023-03-06T08:20:46.903Z,923.06
2023-03-06T08:21:46.903Z,923.05
2023-03-06T08:22:46.912Z,923.05
2023-03-06T08:23:46.974Z,923.05
2023-03-06T08:24:46.898Z,923.04
2023-03-06T08:25:46.886Z,923.03
2023-03-06T08:26:46.868Z,923.03
2023-03-06T08:27:46.840Z,923.03
2023-03-06T08:28:46.910Z,923.04
2023-03-06T08:29:46.853Z,923.04
2023-03-06T08:30:46.825Z,923.03
2023-03-06T08:31:46.873Z,922.99
2023-03-06T08:32:46.810Z,922.99
2023-03-06T08:33:46.834Z,923.00
2023-03-06T08:34:46.869Z,923.00
2023-03-06T08:35:46.877Z,923.03
2023-03-06T08:36:46.771Z,923.05
2023-03-06T08:37:46.771Z,923.07
2023-03-06T08:38:46.747Z,923.09
2023-03-06T08:39:46.791Z,923.10
2023-03-06T08:40:46.766Z,923.11
2023-03-06T08:41:46.777Z,923.10
2023-03-06T08:42:46.777Z,923.09
2023-03-06T08:43:46.685Z,923.08
2023-03-06T08:44:46.690Z,923.06
2023-03-06T08:45:46.955Z,923.04
2023-03-06T08:46:46.697Z,923.04
2023-03-06T08:47:46.704Z,923.06
2023-03-06T08:48:46.615Z,923.07
2023-03-06T08:49:46.632Z,923.10
2023-03-06T08:50:46.628Z,923.14
2023-03-06T08:51:46.532Z,923.16
2023-03-06T08:52:46.540Z,923.20
2023-03-06T08:53:46.539Z,923.21
2023-03-06T08:54:46.553Z,923.23
2023-03-06T08:55:46.556Z,923.26
2023-03-06T08:56:46.507Z,923.26
2023-03-06T08:57:46.504Z,923.27
2023-03-06T08:58:46.472Z,923.30
2023-03-06T08:59:46.428Z,923.34
2023-03-06T09:00:46.647Z,923.35
2023-03-06T09:01:46.463Z,923.35
2023-03-06T09:02:46.445Z,923.35
2023-03-06T09:03:46.471Z,923.34
2023-03-06T09:04:46.406Z,923.35
2023-03-06T09:05:46.415Z,923.38
2023-03-06T09:06:46.361Z,923.38
2023-03-06T09:07:46.376Z,923.41
2023-03-06T09:08:46.349Z,923.38
2023-03-06T09:09:46.338Z,923.37
2023-03-06T09:10:46.383Z,923.37
2023-03-06T09:11:46.349Z,923.37
2023-03-06T09:12:52.501Z,923.36
2023-03-06T09:13:46.314Z,923.36
2023-03-06T09:14:46.271Z,923.36
2023-03-06T09:15:46.280Z,923.36
2023-03-06T09:16:46.348Z,923.34
2023-03-06T09:17:46.345Z,923.34
2023-03-06T09:18:46.235Z,923.34
2023-03-06T09:19:46.345Z,923.35
2023-03-06T09:20:46.226Z,923.36
2023-03-06T09:21:46.256Z,923.36
2023-03-06T09:22:46.172Z,923.36
2023-03-06T09:23:46.247Z,923.37
2023-03-06T09:24:46.178Z,923.35
2023-03-06T09:25:46.546Z,923.35
2023-03-06T09:26:47.985Z,923.37
2023-03-06T09:27:46.163Z,923.40
2023-03-06T09:28:46.119Z,923.35
2023-03-06T09:29:46.113Z,923.37
2023-03-06T09:30:46.129Z,923.42
2023-03-06T09:31:46.159Z,923.42
2023-03-06T09:32:46.136Z,923.41
2023-03-06T09:33:46.101Z,923.44
2023-03-06T09:34:46.153Z,923.47
2023-03-06T09:35:46.217Z,923.47
2023-03-06T09:36:55.924Z,923.46
2023-03-06T09:37:46.147Z,923.47
2023-03-06T09:38:46.043Z,923.48
2023-03-06T09:39:46.083Z,923.47
2023-03-06T09:40:45.985Z,923.48
2023-03-06T09:41:46.005Z,923.49
2023-03-06T09:42:45.998Z,923.50
2023-03-06T09:43:46.087Z,923.52
2023-03-06T09:44:45.963Z,923.54
2023-03-06T09:45:46.131Z,923.54
2023-03-06T09:46:45.925Z,923.56
2023-03-06T09:47:45.931Z,923.58
2023-03-06T09:48:45.935Z,923.58
2023-03-06T09:49:45.946Z,923.59
2023-03-06T09:50:45.996Z,923.59
2023-03-06T09:51:46.012Z,923.58
2023-03-06T09:52:45.945Z,923.60
2023-03-06T09:53:45.918Z,923.61
2023-03-06T09:54:46.060Z,923.63
2023-03-06T09:55:46.754Z,923.65
2023-03-06T09:56:45.957Z,923.66
2023-03-06T09:57:46.568Z,923.65
2023-03-06T09:58:45.856Z,923.63
2023-03-06T09:59:45.960Z,923.65
2023-03-06T10:00:45.878Z,923.66
2023-03-06T10:01:46.590Z,923.67
2023-03-06T10:02:46.097Z,923.71
2023-03-06T10:03:45.985Z,923.71
2023-03-06T10:04:45.953Z,923.72
2023-03-06T10:05:45.797Z,923.72
2023-03-06T10:06:45.805Z,923.72
2023-03-06T10:07:45.825Z,923.71
2023-03-06T10:08:45.735Z,923.70
2023-03-06T10:09:45.725Z,923.71
2023-03-06T10:10:45.727Z,923.72
2023-03-06T10:11:45.741Z,923.74
2023-03-06T10:12:45.738Z,923.77
2023-03-06T10:13:45.763Z,923.78
2023-03-06T10:14:49.076Z,923.80
2023-03-06T10:15:45.666Z,923.79
2023-03-06T10:16:45.680Z,923.78
2023-03-06T10:17:46.106Z,923.79
2023-03-06T10:18:46.614Z,923.81
2023-03-06T10:19:45.654Z,923.83
2023-03-06T10:20:45.596Z,923.84
2023-03-06T10:21:45.667Z,923.84
2023-03-06T10:22:52.542Z,923.85
2023-03-06T10:23:46.124Z,923.87
2023-03-06T10:24:46.538Z,923.89
2023-03-06T10:25:45.529Z,923.91
2023-03-06T10:26:45.607Z,923.94
2023-03-06T10:27:45.559Z,923.97
2023-03-06T10:28:45.542Z,923.98
2023-03-06T10:30:01.262Z,924.01
2023-03-06T10:30:45.648Z,923.99
2023-03-06T10:31:45.561Z,924.00
2023-03-06T10:32:49.196Z,924.02
2023-03-06T10:33:45.469Z,924.02
2023-03-06T10:34:45.490Z,924.03
2023-03-06T10:35:45.472Z,924.05
2023-03-06T10:36:45.434Z,924.07
2023-03-06T10:37:45.445Z,924.09
2023-03-06T10:38:45.349Z,924.09
2023-03-06T10:39:45.421Z,924.11
2023-03-06T10:40:45.419Z,924.11
2023-03-06T10:41:46.248Z,924.12
2023-03-06T10:42:45.376Z,924.11
2023-03-06T10:43:45.386Z,924.11
2023-03-06T10:44:45.286Z,924.11
2023-03-06T10:45:49.301Z,924.13
2023-03-06T10:46:45.404Z,924.15
2023-03-06T10:47:45.372Z,924.18
2023-03-06T10:48:45.419Z,924.20
2023-03-06T10:49:45.270Z,924.22
2023-03-06T10:50:45.229Z,924.20
2023-03-06T10:51:45.283Z,924.17
2023-03-06T10:52:45.289Z,924.16
2023-03-06T10:53:45.308Z,924.17
2023-03-06T10:54:46.144Z,924.16
2023-03-06T10:55:45.162Z,924.18
2023-03-06T10:56:45.244Z,924.17
2023-03-06T10:57:45.271Z,924.17
2023-03-06T10:58:45.228Z,924.17
2023-03-06T10:59:45.460Z,924.17
2023-03-06T11:00:45.146Z,924.16
2023-03-06T11:01:45.257Z,924.17
2023-03-06T11:02:45.159Z,924.17
2023-03-06T11:03:45.581Z,924.18
2023-03-06T11:04:45.133Z,924.20
2023-03-06T11:05:45.124Z,924.20
2023-03-06T11:06:45.158Z,924.18
2023-03-06T11:07:45.076Z,924.20
2023-03-06T11:08:45.042Z,924.20
2023-03-06T11:09:45.606Z,924.21
2023-03-06T11:10:45.056Z,924.23
2023-03-06T11:11:45.132Z,924.23
2023-03-06T11:12:45.000Z,924.25
2023-03-06T11:13:44.993Z,924.24
2023-03-06T11:14:45.026Z,924.25
2023-03-06T11:15:45.117Z,924.26
2023-03-06T11:16:45.057Z,924.28
2023-03-06T11:17:44.947Z,924.29
2023-03-06T11:18:44.918Z,924.29
2023-03-06T11:19:44.969Z,924.30
2023-03-06T11:20:51.963Z,924.31
2023-03-06T11:21:44.927Z,924.30
2023-03-06T11:22:44.939Z,924.32
2023-03-06T11:23:44.888Z,924.32
2023-03-06T11:24:44.998Z,924.30
2023-03-06T11:25:44.895Z,924.29
2023-03-06T11:26:44.901Z,924.32
2023-03-06T11:27:45.099Z,924.33
2023-03-06T11:28:45.063Z,924.36
2023-03-06T11:29:44.825Z,924.34
2023-03-06T11:30:44.868Z,924.33
2023-03-06T11:31:44.950Z,924.35
2023-03-06T11:32:44.796Z,924.35
2023-03-06T11:33:44.803Z,924.35
2023-03-06T11:34:45.784Z,924.36
2023-03-06T11:35:44.744Z,924.35
2023-03-06T11:36:44.774Z,924.37
2023-03-06T11:37:44.789Z,924.39
2023-03-06T11:38:44.830Z,924.43
2023-03-06T11:39:44.781Z,924.45
2023-03-06T11:40:44.753Z,924.44
2023-03-06T11:41:44.656Z,924.47
2023-03-06T11:42:44.664Z,924.47
2023-03-06T11:43:44.810Z,924.47
2023-03-06T11:44:44.669Z,924.47
2023-03-06T11:45:44.679Z,924.45
2023-03-06T11:46:44.731Z,924.41
2023-03-06T11:47:44.644Z,924.42
2023-03-06T11:48:44.593Z,924.42
2023-03-06T11:49:44.603Z,924.41
2023-03-06T11:50:45.581Z,924.42
2023-03-06T11:51:44.672Z,924.44
2023-03-06T11:52:44.583Z,924.45
2023-03-06T11:53:44.601Z,924.50
2023-03-06T11:54:44.560Z,924.48
2023-03-06T11:55:44.639Z,924.49
2023-03-06T11:56:44.804Z,924.51
2023-03-06T11:57:44.511Z,924.53
2023-03-06T11:58:44.587Z,924.55
2023-03-06T11:59:44.466Z,924.59
2023-03-06T12:00:44.493Z,924.62
2023-03-06T12:01:44.551Z,924.63
2023-03-06T12:02:44.494Z,924.65
2023-03-06T12:03:44.605Z,924.64
2023-03-06T12:04:44.587Z,924.62
2023-03-06T12:05:44.496Z,924.63
2023-03-06T12:06:44.572Z,924.61
2023-03-06T12:07:44.426Z,924.60
2023-03-06T12:08:44.428Z,924.61
2023-03-06T12:09:44.396Z,924.65
2023-03-06T12:10:47.743Z,924.65
2023-03-06T12:11:44.399Z,924.68
2023-03-06T12:12:44.426Z,924.68
2023-03-06T12:13:44.470Z,924.71
2023-03-06T12:14:44.383Z,924.75
2023-03-06T12:15:44.424Z,924.75
2023-03-06T12:16:44.317Z,924.76
2023-03-06T12:17:44.375Z,924.76
2023-03-06T12:18:44.301Z,924.77
2023-03-06T12:19:44.303Z,924.78
2023-03-06T12:20:44.382Z,924.77
2023-03-06T12:21:44.370Z,924.77
2023-03-06T12:22:53.358Z,924.79
2023-03-06T12:23:44.291Z,924.77
2023-03-06T12:24:44.292Z,924.77
2023-03-06T12:25:44.295Z,924.79
2023-03-06T12:26:45.123Z,924.83
2023-03-06T12:27:44.406Z,924.81
2023-03-06T12:28:46.245Z,924.85
2023-03-06T12:29:44.334Z,924.88